Time;durP1;ratioP1;P1;durP2;ratioP2;P2;SDS_P1;SDS_P2;PMS_P1;PMS_P2;Temp;Humidity;BMP_temperature;BMP_pressure;BME280_temperature;BME280_humidity;BME280_pressure;Samples;Min_cycle;Max_cycle;Signal;HPM_P1;HPM_P2
2021/04/01 00:01:34;;;;;;;41.77;19.60;;;11.00;99.90;;;;;;4972570;28;20263;-87
2021/04/01 00:04:00;;;;;;;47.30;21.30;;;10.90;99.90;;;;;;4954967;28;20315;-88
2021/04/01 00:06:26;;;;;;;41.93;21.50;;;10.80;99.90;;;;;;4973453;28;20220;-86
2021/04/01 00:08:52;;;;;;;45.87;23.47;;;10.70;99.90;;;;;;4976480;28;20898;-86
2021/04/01 00:11:18;;;;;;;39.43;23.33;;;10.70;99.90;;;;;;4957989;28;20224;-87
2021/04/01 00:13:44;;;;;;;44.13;23.00;;;10.70;99.90;;;;;;4974844;28;20217;-86
2021/04/01 00:16:10;;;;;;;43.97;22.73;;;10.80;99.90;;;;;;4956543;28;20203;-89
2021/04/01 00:18:36;;;;;;;49.70;23.30;;;10.80;99.90;;;;;;4959778;28;21378;-86
2021/04/01 00:21:03;;;;;;;45.80;24.60;;;10.80;99.90;;;;;;4959063;28;20322;-86
2021/04/01 00:23:28;;;;;;;41.07;22.10;;;10.80;99.90;;;;;;4977247;28;20320;-86
2021/04/01 00:25:55;;;;;;;40.43;22.27;;;10.70;99.90;;;;;;4960701;28;20219;-86
2021/04/01 00:28:21;;;;;;;50.80;24.23;;;10.60;99.90;;;;;;4977994;28;20184;-85
2021/04/01 00:30:47;;;;;;;47.47;24.77;;;10.70;99.90;;;;;;4971786;28;20239;-86
2021/04/01 00:33:13;;;;;;;51.33;23.47;;;10.80;99.90;;;;;;4969448;28;20227;-86
2021/04/01 00:35:38;;;;;;;46.70;23.27;;;10.80;99.90;;;;;;4984954;28;20226;-90
2021/04/01 00:38:04;;;;;;;49.60;24.70;;;10.80;99.90;;;;;;4985267;28;20220;-85
2021/04/01 00:40:30;;;;;;;51.63;25.83;;;10.70;99.90;;;;;;4963421;28;21010;-86
2021/04/01 00:42:56;;;;;;;47.70;24.33;;;10.70;99.90;;;;;;4967971;28;20185;-85
2021/04/01 00:45:22;;;;;;;58.33;25.83;;;10.70;99.90;;;;;;4967257;28;20226;-85
2021/04/01 00:47:50;;;;;;;50.53;24.50;;;10.70;99.90;;;;;;4967981;28;20278;-86
2021/04/01 00:50:21;;;;;;;45.20;22.73;;;10.70;99.90;;;;;;4992402;28;20232;-89
2021/04/01 00:52:47;;;;;;;42.27;21.23;;;10.60;99.90;;;;;;4983872;28;20224;-88
2021/04/01 00:55:14;;;;;;;40.70;20.90;;;10.60;99.90;;;;;;4984855;28;20192;-86
2021/04/01 00:57:42;;;;;;;45.03;22.17;;;10.30;99.90;;;;;;4962214;28;20211;-86
2021/04/01 01:00:12;;;;;;;45.50;22.77;;;10.30;99.90;;;;;;4999452;28;20212;-86
2021/04/01 01:02:38;;;;;;;43.83;23.43;;;10.30;99.90;;;;;;4998318;28;20212;-86
2021/04/01 01:05:05;;;;;;;46.63;23.30;;;10.20;99.90;;;;;;4983612;28;20224;-86
2021/04/01 01:07:30;;;;;;;45.40;21.97;;;10.20;99.90;;;;;;4983024;28;20228;-88
2021/04/01 01:09:56;;;;;;;43.30;22.50;;;10.10;99.90;;;;;;4985535;28;20508;-88
2021/04/01 01:12:22;;;;;;;49.53;23.37;;;10.00;99.90;;;;;;4983687;28;20669;-86
2021/04/01 01:14:48;;;;;;;49.30;23.97;;;10.00;99.90;;;;;;4984198;28;20692;-88
2021/04/01 01:17:15;;;;;;;52.43;22.37;;;10.00;99.90;;;;;;4983178;28;20299;-87
2021/04/01 01:19:46;;;;;;;42.67;19.97;;;10.00;99.90;;;;;;4967232;28;20220;-85
2021/04/01 01:22:12;;;;;;;31.67;19.03;;;10.10;99.90;;;;;;4983883;28;20220;-86
2021/04/01 01:24:37;;;;;;;29.53;18.37;;;10.10;99.90;;;;;;4968822;28;20196;-87
2021/04/01 01:27:04;;;;;;;52.23;22.67;;;10.10;99.90;;;;;;4967746;28;20270;-85
2021/04/01 01:29:31;;;;;;;52.77;21.13;;;10.10;99.90;;;;;;4993079;28;20278;-86
2021/04/01 01:31:57;;;;;;;35.03;21.43;;;10.10;99.90;;;;;;4986446;28;20215;-86
2021/04/01 01:34:23;;;;;;;33.17;17.03;;;10.00;99.90;;;;;;4985773;28;20188;-86
2021/04/01 01:36:50;;;;;;;42.17;20.23;;;10.00;99.90;;;;;;4951760;28;20209;-85
2021/04/01 01:39:16;;;;;;;40.47;17.87;;;9.90;99.90;;;;;;4950927;28;20273;-89
2021/04/01 01:41:42;;;;;;;37.40;18.37;;;9.80;99.90;;;;;;5002956;28;20234;-87
2021/04/01 01:44:08;;;;;;;40.73;18.87;;;9.70;99.90;;;;;;4969789;28;21104;-86
2021/04/01 01:46:34;;;;;;;38.57;16.47;;;9.70;99.90;;;;;;4968992;28;20231;-89
2021/04/01 01:49:00;;;;;;;28.53;16.53;;;9.60;99.90;;;;;;4987520;28;20656;-88
2021/04/01 01:51:27;;;;;;;32.73;17.00;;;9.60;99.90;;;;;;4984803;28;20227;-85
2021/04/01 01:53:53;;;;;;;52.13;19.57;;;9.60;99.90;;;;;;5000409;28;20269;-87
2021/04/01 01:56:24;;;;;;;28.40;16.80;;;9.50;99.90;;;;;;4981542;28;20211;-87
2021/04/01 01:58:55;;;;;;;36.40;18.67;;;9.40;99.90;;;;;;4981503;28;21254;-91
2021/04/01 02:01:23;;;;;;;37.50;18.10;;;9.40;99.90;;;;;;4990766;28;20214;-90
2021/04/01 02:03:49;;;;;;;29.27;16.93;;;9.30;99.90;;;;;;4970067;28;20198;-87
2021/04/01 02:06:18;;;;;;;35.07;16.23;;;9.30;99.90;;;;;;4983868;28;20223;-86
2021/04/01 02:08:45;;;;;;;46.33;22.53;;;9.30;99.90;;;;;;4984174;28;20219;-86
2021/04/01 02:11:11;;;;;;;38.90;16.37;;;9.30;99.90;;;;;;4985028;28;20261;-87
2021/04/01 02:13:37;;;;;;;36.67;15.53;;;9.30;99.90;;;;;;4968086;28;20302;-86
2021/04/01 02:16:02;;;;;;;28.83;17.17;;;9.20;99.90;;;;;;4985983;28;20226;-86
2021/04/01 02:18:30;;;;;;;27.87;15.57;;;9.00;99.90;;;;;;4976465;28;20283;-88
2021/04/01 02:20:58;;;;;;;34.87;16.17;;;9.00;99.90;;;;;;4983809;28;20306;-86
2021/04/01 02:23:25;;;;;;;28.07;15.23;;;8.90;99.90;;;;;;4967579;28;20785;-86
2021/04/01 02:25:53;;;;;;;29.47;16.93;;;8.90;99.90;;;;;;4993339;28;20215;-86
2021/04/01 02:28:21;;;;;;;27.07;13.63;;;8.90;99.90;;;;;;5002156;28;20322;-87
2021/04/01 02:30:50;;;;;;;26.00;13.07;;;8.90;99.90;;;;;;4986590;28;20223;-91
2021/04/01 02:33:21;;;;;;;34.20;16.60;;;9.00;99.90;;;;;;5001759;28;20215;-85
2021/04/01 02:35:47;;;;;;;30.00;14.27;;;8.90;99.90;;;;;;5002675;28;20369;-86
2021/04/01 02:38:13;;;;;;;33.47;18.50;;;9.00;99.90;;;;;;4985026;28;20218;-86
2021/04/01 02:40:39;;;;;;;24.00;12.00;;;9.00;99.90;;;;;;4984065;28;20230;-86
2021/04/01 02:43:07;;;;;;;27.43;16.23;;;8.90;99.90;;;;;;4986283;28;20188;-88
2021/04/01 02:45:33;;;;;;;31.73;15.60;;;9.00;99.90;;;;;;4968556;28;20330;-85
2021/04/01 02:47:59;;;;;;;37.60;16.47;;;9.00;99.90;;;;;;4983954;28;20218;-86
2021/04/01 02:50:25;;;;;;;28.57;16.63;;;9.00;99.90;;;;;;4985202;28;20226;-87
2021/04/01 02:52:51;;;;;;;20.13;11.70;;;9.00;99.90;;;;;;4986119;28;20235;-86
2021/04/01 02:55:17;;;;;;;28.77;16.67;;;9.00;99.90;;;;;;4989727;28;20191;-86
2021/04/01 02:57:43;;;;;;;37.73;19.60;;;9.00;99.90;;;;;;4974024;28;20703;-86
2021/04/01 03:00:14;;;;;;;33.53;19.67;;;9.00;99.90;;;;;;4969969;28;20574;-85
2021/04/01 03:02:52;;;;;;;37.93;21.03;;;8.90;99.90;;;;;;4984552;28;20215;-87
2021/04/01 03:05:17;;;;;;;39.43;18.70;;;8.90;99.90;;;;;;4987977;28;20219;-85
2021/04/01 03:07:43;;;;;;;36.73;18.67;;;8.90;99.90;;;;;;4981073;28;20219;-87
2021/04/01 03:10:11;;;;;;;38.30;19.80;;;8.80;99.90;;;;;;4964169;28;20568;-87
2021/04/01 03:12:38;;;;;;;38.93;20.00;;;8.80;99.90;;;;;;4984374;28;20198;-86
2021/04/01 03:15:06;;;;;;;39.50;18.80;;;8.70;99.90;;;;;;4980711;28;20623;-87
2021/04/01 03:17:32;;;;;;;37.83;17.90;;;8.70;99.90;;;;;;4972918;28;20234;-86
2021/04/01 03:19:57;;;;;;;49.83;24.03;;;8.60;99.90;;;;;;4972044;28;20264;-85
2021/04/01 03:22:23;;;;;;;35.13;20.07;;;8.60;99.90;;;;;;4973280;28;20183;-88
2021/04/01 03:24:49;;;;;;;45.47;22.63;;;8.60;99.90;;;;;;4990054;28;20183;-85
2021/04/01 03:27:15;;;;;;;40.90;20.83;;;8.50;99.90;;;;;;4972374;28;20226;-86
2021/04/01 03:29:41;;;;;;;34.47;18.10;;;8.50;99.90;;;;;;4972353;28;20642;-86
2021/04/01 03:32:07;;;;;;;35.20;21.40;;;8.50;99.90;;;;;;4982298;28;20211;-85
2021/04/01 03:34:32;;;;;;;40.47;18.93;;;8.50;99.90;;;;;;4988712;28;20318;-87
2021/04/01 03:36:58;;;;;;;40.27;20.87;;;8.40;99.90;;;;;;4989716;28;20559;-89
2021/04/01 03:39:24;;;;;;;32.77;18.13;;;8.40;99.90;;;;;;4972282;28;20211;-89
2021/04/01 03:41:50;;;;;;;41.93;22.17;;;8.40;99.90;;;;;;4988809;28;20226;-88
2021/04/01 03:44:16;;;;;;;27.20;14.63;;;8.30;99.90;;;;;;4988427;28;20294;-87
2021/04/01 03:46:42;;;;;;;31.87;18.03;;;8.20;99.90;;;;;;4988094;28;20223;-86
2021/04/01 03:49:07;;;;;;;35.57;16.87;;;8.20;99.90;;;;;;5005078;28;20556;-85
2021/04/01 03:51:33;;;;;;;28.17;16.53;;;8.10;99.90;;;;;;4988273;28;20219;-88
2021/04/01 03:53:59;;;;;;;33.77;16.30;;;8.10;99.90;;;;;;5006517;28;20579;-87
2021/04/01 03:56:25;;;;;;;31.53;17.90;;;8.00;99.90;;;;;;4986714;28;20737;-88
2021/04/01 03:59:09;;;;;;;30.30;15.60;;;8.00;99.90;;;;;;4966236;28;20235;-88
2021/04/01 04:04:40;;;;;;;26.63;12.87;;;7.90;99.90;;;;;;4983677;28;20193;-88
2021/04/01 04:12:27;;;;;;;11.80;4.97;;;7.70;99.90;;;;;;4969390;28;20254;-85
2021/04/01 04:17:28;;;;;;;8.77;4.57;;;7.60;99.90;;;;;;4985671;28;20215;-85
2021/04/01 04:19:54;;;;;;;9.47;3.10;;;7.50;99.90;;;;;;4952712;28;20306;-91
2021/04/01 04:22:19;;;;;;;5.13;2.17;;;7.50;99.90;;;;;;4999460;28;20318;-86
2021/04/01 04:24:45;;;;;;;7.87;2.10;;;7.50;99.90;;;;;;4967654;28;21006;-88
2021/04/01 04:30:02;;;;;;;1.50;1.13;;;7.50;99.90;;;;;;4984965;28;20258;-87
2021/04/01 04:32:28;;;;;;;4.77;0.97;;;7.40;99.90;;;;;;5004467;28;20229;-85
2021/04/01 04:34:54;;;;;;;1.43;1.33;;;7.40;99.90;;;;;;4969900;28;20223;-88
2021/04/01 04:37:20;;;;;;;2.23;1.37;;;7.40;99.90;;;;;;4970506;28;20199;-86
2021/04/01 04:39:46;;;;;;;7.73;1.53;;;7.40;99.90;;;;;;4978645;28;20203;-88
2021/04/01 04:42:12;;;;;;;0.80;0.80;;;7.40;99.90;;;;;;4980554;28;20239;-89
2021/04/01 04:44:39;;;;;;;14.43;1.93;;;7.30;99.90;;;;;;4983731;28;20215;-87
2021/04/01 04:47:05;;;;;;;4.80;0.80;;;7.40;99.90;;;;;;4986720;28;20563;-85
2021/04/01 04:49:30;;;;;;;1.53;1.43;;;7.30;99.90;;;;;;5004544;28;20672;-89
2021/04/01 04:51:56;;;;;;;2.43;1.80;;;7.30;99.90;;;;;;5003429;28;20204;-87
2021/04/01 04:54:22;;;;;;;6.80;1.27;;;7.30;99.90;;;;;;4969981;28;20748;-88
2021/04/01 04:56:50;;;;;;;2.10;2.00;;;7.30;99.90;;;;;;4953491;28;20855;-87
2021/04/01 05:05:14;;;;;;;1.90;1.43;;;7.30;99.90;;;;;;4983920;28;20225;-88
2021/04/01 05:07:21;;;;;;;23.57;2.30;;;7.30;99.90;;;;;;4993633;28;20203;-85
2021/04/01 05:09:47;;;;;;;2.57;1.40;;;7.20;99.90;;;;;;4987889;28;20195;-90
2021/04/01 05:12:14;;;;;;;2.57;1.07;;;7.20;99.90;;;;;;5002528;28;20227;-86
2021/04/01 05:14:40;;;;;;;5.67;1.07;;;7.20;99.90;;;;;;4986245;28;20487;-89
2021/04/01 05:17:06;;;;;;;7.00;1.27;;;7.20;99.90;;;;;;4970432;28;21225;-89
2021/04/01 05:19:34;;;;;;;11.77;1.63;;;7.20;99.90;;;;;;4987477;28;20261;-87
2021/04/01 05:24:27;;;;;;;13.17;1.77;;;7.20;99.90;;;;;;4968813;28;20227;-89
2021/04/01 05:29:33;;;;;;;13.80;0.57;;;7.30;99.90;;;;;;4987131;28;20235;-88
2021/04/01 05:32:01;;;;;;;0.60;0.50;;;7.30;99.90;;;;;;4999795;28;20222;-87
2021/04/01 05:34:28;;;;;;;5.37;1.63;;;7.30;99.90;;;;;;4982254;28;20200;-89
2021/04/01 05:36:54;;;;;;;2.60;0.93;;;7.40;99.90;;;;;;4951083;28;20186;-86
2021/04/01 05:39:27;;;;;;;4.03;0.97;;;7.50;99.90;;;;;;4978092;28;20304;-87
2021/04/01 05:41:53;;;;;;;2.93;2.27;;;7.60;99.90;;;;;;4969420;28;20587;-86
2021/04/01 06:04:02;;;;;;;3.23;2.20;;;8.60;99.90;;;;;;5003692;28;21164;-90
2021/04/01 06:06:32;;;;;;;1.03;0.90;;;8.60;99.90;;;;;;5002381;28;20253;-88
2021/04/01 06:09:04;;;;;;;2.30;2.10;;;8.60;99.90;;;;;;5000396;28;20230;-88
2021/04/01 06:11:30;;;;;;;3.70;1.13;;;8.60;99.90;;;;;;4969255;28;20223;-88
2021/04/01 06:14:17;;;;;;;10.03;1.50;;;8.70;99.90;;;;;;4976989;28;20289;-88
2021/04/01 06:16:45;;;;;;;12.93;1.13;;;8.50;99.90;;;;;;4998538;28;20627;-90
2021/04/01 06:19:18;;;;;;;5.33;1.57;;;8.60;99.90;;;;;;4985131;28;20652;-89
2021/04/01 06:21:46;;;;;;;0.50;0.47;;;8.70;99.90;;;;;;4986622;28;20291;-89
2021/04/01 06:24:25;;;;;;;4.30;1.40;;;8.70;99.90;;;;;;5002550;28;20222;-88
2021/04/01 06:29:39;;;;;;;4.37;1.40;;;8.80;99.90;;;;;;5002595;28;20250;-90
2021/04/01 06:32:17;;;;;;;2.10;1.00;;;8.80;99.90;;;;;;4983997;28;20225;-89
2021/04/01 06:34:44;;;;;;;0.33;0.33;;;8.80;99.90;;;;;;5002552;28;20253;-89
2021/04/01 06:39:59;;;;;;;11.30;2.17;;;8.90;99.90;;;;;;5003068;28;21216;-90
2021/04/01 06:42:35;;;;;;;9.13;2.40;;;9.10;99.90;;;;;;5000430;28;20231;-90
2021/04/01 06:45:05;;;;;;;7.13;2.27;;;9.10;99.90;;;;;;5002152;28;20337;-88
2021/04/01 06:47:33;;;;;;;4.90;1.30;;;9.30;99.90;;;;;;5002867;28;20231;-88
2021/04/01 06:52:47;;;;;;;1.70;1.60;;;10.10;99.90;;;;;;5001342;28;20774;-90
2021/04/01 06:55:32;;;;;;;0.50;0.50;;;10.90;99.90;;;;;;4979771;28;20186;-89
2021/04/01 06:58:23;;;;;;;0.90;0.90;;;11.00;99.90;;;;;;4969452;28;20265;-90
2021/04/01 07:03:26;;;;;;;8.07;1.90;;;11.00;99.90;;;;;;4983213;28;20215;-89
2021/04/01 07:06:05;;;;;;;2.30;0.97;;;11.10;99.90;;;;;;4982506;28;20227;-90
2021/04/01 07:08:35;;;;;;;4.07;0.80;;;11.20;99.90;;;;;;5002305;28;20215;-88
2021/04/01 07:11:10;;;;;;;4.93;1.90;;;11.40;99.90;;;;;;5000089;28;20261;-88
2021/04/01 07:13:47;;;;;;;3.03;0.90;;;11.80;99.90;;;;;;4968945;28;20846;-90
2021/04/01 07:47:35;;;;;;;11.50;1.83;;;11.10;99.90;;;;;;5002063;28;20219;-87
2021/04/01 07:50:16;;;;;;;1.50;0.53;;;10.50;99.90;;;;;;4984100;28;20234;-88
2021/04/01 07:52:49;;;;;;;2.00;0.80;;;9.60;99.90;;;;;;4992226;28;20274;-86
2021/04/01 08:05:26;;;;;;;2.13;1.27;;;9.20;99.90;;;;;;4985971;28;20234;-89
2021/04/01 08:07:59;;;;;;;0.83;0.20;;;9.10;99.90;;;;;;4996977;28;20680;-89
2021/04/01 08:10:28;;;;;;;3.63;0.90;;;9.40;99.90;;;;;;4986907;28;20211;-87
2021/04/01 08:13:05;;;;;;;1.80;1.63;;;9.50;99.90;;;;;;4987693;28;20215;-87
2021/04/01 08:15:37;;;;;;;1.03;0.57;;;9.80;99.90;;;;;;5005046;28;20255;-86
2021/04/01 08:21:06;;;;;;;5.87;0.80;;;10.90;99.90;;;;;;4988470;28;20247;-87
2021/04/01 08:23:41;;;;;;;1.33;1.23;;;11.10;99.90;;;;;;4985708;28;20265;-85
2021/04/01 08:36:44;;;;;;;1.93;0.80;;;11.00;99.90;;;;;;4988077;28;20325;-87
2021/04/01 08:39:11;;;;;;;6.83;1.83;;;11.40;99.90;;;;;;5003191;28;20215;-86
2021/04/01 08:41:46;;;;;;;2.40;1.57;;;11.10;99.90;;;;;;4986389;28;20223;-88
2021/04/01 08:44:29;;;;;;;0.97;0.67;;;10.80;99.90;;;;;;5001260;28;20214;-86
2021/04/01 08:47:27;;;;;;;1.80;0.73;;;10.40;99.90;;;;;;4985069;28;20323;-87
2021/04/01 08:50:02;;;;;;;0.57;0.57;;;10.30;99.90;;;;;;4978948;28;20219;-86
2021/04/01 08:53:07;;;;;;;1.90;0.43;;;10.20;99.90;;;;;;5003875;28;20234;-89
2021/04/01 08:56:25;;;;;;;8.27;1.37;;;9.90;99.90;;;;;;5001651;28;20318;-86
2021/04/01 08:59:26;;;;;;;6.07;2.30;;;10.60;99.90;;;;;;4998637;28;20223;-87
2021/04/01 09:01:55;;;;;;;3.70;0.73;;;11.40;99.90;;;;;;4983633;28;20231;-87
2021/04/01 09:04:26;;;;;;;5.33;1.23;;;11.60;99.90;;;;;;4969179;28;20191;-87
2021/04/01 09:07:26;;;;;;;3.20;0.80;;;11.80;99.90;;;;;;4970845;28;20222;-89
2021/04/01 09:09:59;;;;;;;7.50;1.80;;;11.90;99.90;;;;;;4985639;28;20227;-87
2021/04/01 09:12:36;;;;;;;2.47;0.70;;;12.10;99.90;;;;;;4984956;28;20234;-87
2021/04/01 09:15:06;;;;;;;9.13;1.70;;;11.50;99.90;;;;;;4969463;28;20702;-86
2021/04/01 09:17:34;;;;;;;0.57;0.57;;;11.80;99.90;;;;;;4985277;28;20231;-87
2021/04/01 09:20:20;;;;;;;1.90;0.87;;;11.70;99.90;;;;;;5001598;28;20240;-86
2021/04/01 09:22:49;;;;;;;6.50;1.27;;;11.90;99.90;;;;;;5003607;28;20223;-87
2021/04/01 09:25:15;;;;;;;7.33;0.83;;;11.70;99.90;;;;;;4984083;28;20192;-87
2021/04/01 09:27:49;;;;;;;1.07;1.00;;;11.70;99.90;;;;;;5000361;28;20187;-86
2021/04/01 09:30:20;;;;;;;4.97;0.77;;;11.40;99.90;;;;;;4968180;28;20237;-86
2021/04/01 09:32:50;;;;;;;1.47;1.37;;;11.90;99.90;;;;;;4980635;28;20215;-86
2021/04/01 09:35:16;;;;;;;3.60;1.23;;;11.40;99.90;;;;;;4984093;28;20286;-87
2021/04/01 09:37:54;;;;;;;0.63;0.33;;;11.00;99.90;;;;;;4969272;28;20227;-87
2021/04/01 09:40:27;;;;;;;0.67;0.60;;;11.80;99.90;;;;;;4984666;28;20187;-85
2021/04/01 09:42:53;;;;;;;0.93;0.70;;;11.70;99.90;;;;;;4986733;28;20222;-86
2021/04/01 09:45:29;;;;;;;1.60;0.67;;;11.80;99.90;;;;;;4984726;28;20254;-88
2021/04/01 09:48:00;;;;;;;2.30;1.00;;;11.80;99.90;;;;;;4984541;28;20215;-86
2021/04/01 09:50:31;;;;;;;7.43;1.20;;;11.40;99.90;;;;;;4984346;28;20223;-87
2021/04/01 09:53:01;;;;;;;2.47;0.57;;;11.30;99.90;;;;;;4985103;28;20230;-86
2021/04/01 09:55:41;;;;;;;2.10;0.70;;;11.40;99.90;;;;;;5000614;28;20222;-86
2021/04/01 09:58:25;;;;;;;2.97;1.27;;;12.20;99.90;;;;;;4986010;28;20306;-87
2021/04/01 10:01:03;;;;;;;0.73;0.73;;;11.80;99.90;;;;;;4992000;28;20344;-90
2021/04/01 10:04:04;;;;;;;0.93;0.43;;;11.20;99.90;;;;;;4984563;28;20226;-89
2021/04/01 10:06:41;;;;;;;4.80;0.87;;;11.30;99.90;;;;;;5003163;28;20215;-87
2021/04/01 10:09:10;;;;;;;3.70;0.83;;;11.30;99.90;;;;;;4985037;28;20215;-87
2021/04/01 10:11:58;;;;;;;4.23;0.97;;;11.50;99.90;;;;;;5003477;28;20215;-86
2021/04/01 10:14:27;;;;;;;12.47;1.63;;;11.60;99.90;;;;;;4994948;28;20223;-87
2021/04/01 10:17:06;;;;;;;2.57;0.73;;;11.00;99.90;;;;;;4985237;28;20210;-88
2021/04/01 10:19:40;;;;;;;2.07;0.40;;;10.50;99.90;;;;;;5000717;28;20229;-86
2021/04/01 10:22:17;;;;;;;1.77;1.67;;;10.30;99.90;;;;;;5002521;28;20287;-89
2021/04/01 10:24:44;;;;;;;0.70;0.70;;;11.00;99.90;;;;;;4994723;28;21056;-87
2021/04/01 10:27:33;;;;;;;1.00;0.97;;;11.30;99.90;;;;;;4999585;28;20235;-87
2021/04/01 10:30:03;;;;;;;4.63;1.00;;;11.40;99.90;;;;;;4984835;28;20250;-88
2021/04/01 10:32:48;;;;;;;3.10;1.43;;;12.00;99.90;;;;;;4984587;28;20273;-88
2021/04/01 10:35:16;;;;;;;3.07;1.30;;;11.80;99.90;;;;;;5001729;28;20219;-87
2021/04/01 10:37:47;;;;;;;12.33;1.23;;;11.80;99.90;;;;;;4962144;28;20261;-89
2021/04/01 10:40:15;;;;;;;6.17;3.03;;;11.30;99.90;;;;;;4984897;28;20175;-85
2021/04/01 10:42:46;;;;;;;2.77;0.97;;;11.50;99.90;;;;;;4986173;28;20580;-87
2021/04/01 10:45:22;;;;;;;1.57;1.03;;;11.70;99.90;;;;;;4992460;28;20223;-88
2021/04/01 10:48:16;;;;;;;1.47;0.87;;;11.30;99.90;;;;;;4977577;28;20305;-87
2021/04/01 10:50:43;;;;;;;4.30;1.10;;;10.80;99.90;;;;;;5001304;28;20318;-86
2021/04/01 10:53:21;;;;;;;1.63;0.73;;;10.70;99.90;;;;;;4961669;28;20215;-88
2021/04/01 10:55:47;;;;;;;2.30;0.60;;;10.90;99.90;;;;;;4993620;28;20214;-87
2021/04/01 10:58:14;;;;;;;1.33;0.60;;;10.50;99.90;;;;;;4984313;28;20207;-86
2021/04/01 11:00:49;;;;;;;5.30;0.93;;;10.80;99.90;;;;;;4984403;28;20239;-86
2021/04/01 11:03:17;;;;;;;6.27;1.10;;;11.10;99.90;;;;;;4983468;28;20211;-87
2021/04/01 11:05:44;;;;;;;1.03;0.97;;;10.80;99.90;;;;;;4992001;28;20707;-89
2021/04/01 11:08:11;;;;;;;4.10;1.83;;;11.00;99.90;;;;;;4982476;28;20212;-88
2021/04/01 11:10:39;;;;;;;4.00;1.57;;;10.80;99.90;;;;;;4960911;28;20215;-90
2021/04/01 11:13:07;;;;;;;0.70;0.70;;;11.20;99.90;;;;;;4985351;28;20295;-87
2021/04/01 11:15:36;;;;;;;2.57;1.00;;;11.40;99.90;;;;;;4984706;28;20227;-88
2021/04/01 11:18:22;;;;;;;2.33;0.73;;;11.10;99.90;;;;;;5001191;28;20223;-88
2021/04/01 11:20:51;;;;;;;1.07;0.83;;;10.70;99.90;;;;;;5000012;28;20700;-87
2021/04/01 11:23:19;;;;;;;2.80;0.97;;;10.90;99.90;;;;;;4983030;28;20219;-88
2021/04/01 11:25:59;;;;;;;3.27;1.13;;;10.90;99.90;;;;;;4967830;28;20211;-87
2021/04/01 11:28:37;;;;;;;3.80;0.60;;;10.90;99.90;;;;;;4983261;28;20187;-86
2021/04/01 11:31:03;;;;;;;5.03;1.60;;;10.10;99.90;;;;;;5003342;28;20326;-88
2021/04/01 11:33:30;;;;;;;2.60;0.53;;;9.70;99.90;;;;;;4999475;28;20227;-86
2021/04/01 11:36:12;;;;;;;0.63;0.63;;;9.80;99.90;;;;;;4984484;28;20250;-86
2021/04/01 11:38:48;;;;;;;3.40;0.90;;;10.30;99.90;;;;;;4976104;28;20253;-87
2021/04/01 11:41:20;;;;;;;6.60;2.30;;;10.60;99.90;;;;;;4986137;28;20265;-88
2021/04/01 11:43:52;;;;;;;1.50;1.13;;;10.20;99.90;;;;;;4986938;28;20218;-86
2021/04/01 11:46:19;;;;;;;4.97;1.07;;;10.40;99.90;;;;;;5003343;28;20248;-86
2021/04/01 11:48:46;;;;;;;2.10;1.90;;;10.40;99.90;;;;;;4987497;28;20188;-87
2021/04/01 11:51:34;;;;;;;2.43;2.23;;;10.10;99.90;;;;;;4970412;28;20219;-89
2021/04/01 11:54:06;;;;;;;1.30;0.97;;;10.50;99.90;;;;;;4984028;28;20219;-88
2021/04/01 11:56:41;;;;;;;2.50;0.93;;;10.10;99.90;;;;;;4982918;28;20238;-87
2021/04/01 11:59:08;;;;;;;4.13;1.40;;;9.60;99.90;;;;;;4967429;28;20214;-91
2021/04/01 12:01:36;;;;;;;2.53;1.07;;;9.50;99.90;;;;;;4966890;28;20223;-87
2021/04/01 12:04:08;;;;;;;1.57;1.03;;;9.60;99.90;;;;;;4972308;28;22616;-88
2021/04/01 12:06:36;;;;;;;1.90;1.37;;;10.00;99.90;;;;;;5005425;28;20246;-89
2021/04/01 12:09:03;;;;;;;3.37;1.47;;;10.00;99.90;;;;;;4971036;28;20310;-89
2021/04/01 12:11:39;;;;;;;3.53;0.87;;;9.60;99.90;;;;;;4977506;28;20222;-88
2021/04/01 12:14:08;;;;;;;4.80;1.27;;;9.40;99.90;;;;;;4986247;28;20241;-85
2021/04/01 12:16:34;;;;;;;4.53;0.40;;;9.70;99.90;;;;;;4986365;28;20224;-85
2021/04/01 12:19:01;;;;;;;0.40;0.40;;;9.40;99.90;;;;;;4972447;28;20194;-87
2021/04/01 12:21:26;;;;;;;6.30;1.17;;;9.30;99.90;;;;;;4953640;28;20231;-88
2021/04/01 12:23:57;;;;;;;3.23;0.80;;;9.30;99.90;;;;;;4954701;28;20663;-87
2021/04/01 12:26:24;;;;;;;5.10;0.97;;;9.30;99.90;;;;;;4986495;28;20508;-88
2021/04/01 12:28:57;;;;;;;11.57;1.43;;;9.60;99.90;;;;;;4970030;28;20227;-86
2021/04/01 12:31:35;;;;;;;9.20;1.87;;;9.80;99.90;;;;;;4970438;28;20289;-88
2021/04/01 12:34:01;;;;;;;3.43;0.77;;;9.60;99.90;;;;;;4982675;28;20195;-86
2021/04/01 12:36:31;;;;;;;6.03;1.70;;;9.40;99.90;;;;;;4971112;28;20236;-88
2021/04/01 12:38:57;;;;;;;2.03;0.93;;;9.60;99.90;;;;;;4988702;28;20211;-87
2021/04/01 12:41:29;;;;;;;3.97;1.27;;;9.70;99.90;;;;;;4968442;28;20568;-90
2021/04/01 12:43:56;;;;;;;4.90;0.73;;;9.50;99.90;;;;;;4986711;28;20735;-88
2021/04/01 12:46:23;;;;;;;0.60;0.60;;;9.50;99.90;;;;;;4969764;28;20202;-87
2021/04/01 12:48:56;;;;;;;3.63;1.27;;;9.20;99.90;;;;;;4984781;28;20219;-89
2021/04/01 12:51:25;;;;;;;2.23;1.10;;;9.10;99.90;;;;;;4985062;28;20227;-90
2021/04/01 12:54:09;;;;;;;8.60;2.13;;;9.20;99.90;;;;;;4970863;28;20219;-89
2021/04/01 12:56:41;;;;;;;1.47;1.20;;;9.30;99.90;;;;;;4986632;28;20223;-88
2021/04/01 12:59:17;;;;;;;2.30;1.43;;;9.20;99.90;;;;;;4980729;28;20265;-87
2021/04/01 13:01:48;;;;;;;2.73;1.20;;;9.20;99.90;;;;;;4969690;28;20235;-87
2021/04/01 13:04:14;;;;;;;1.20;0.90;;;9.40;99.90;;;;;;5002859;28;20233;-86
2021/04/01 13:11:49;;;;;;;0.50;0.50;;;9.30;99.90;;;;;;5003544;28;20231;-88
2021/04/01 13:14:15;;;;;;;1.27;1.10;;;9.10;99.90;;;;;;4985490;28;20234;-88
2021/04/01 13:16:40;;;;;;;0.40;0.40;;;9.10;99.90;;;;;;4986119;28;20227;-90
2021/04/01 13:19:07;;;;;;;0.60;0.60;;;9.20;99.90;;;;;;4955153;28;20192;-90
2021/04/01 13:21:41;;;;;;;1.63;0.90;;;8.90;99.90;;;;;;4985296;28;20235;-89
2021/04/01 13:24:15;;;;;;;1.43;0.77;;;8.90;99.90;;;;;;4986446;28;20219;-88
2021/04/01 13:26:42;;;;;;;1.20;0.60;;;8.90;99.90;;;;;;5004093;28;20281;-89
2021/04/01 13:29:09;;;;;;;0.33;0.33;;;8.90;99.90;;;;;;5002575;28;20294;-88
2021/04/01 13:34:27;;;;;;;1.17;0.63;;;9.00;99.90;;;;;;5005933;28;20203;-88
2021/04/01 13:39:25;;;;;;;0.50;0.50;;;9.10;99.90;;;;;;5004223;28;20219;-88
2021/04/01 13:44:22;;;;;;;1.90;0.97;;;8.90;99.90;;;;;;4979451;28;20211;-88
2021/04/01 13:46:48;;;;;;;3.27;1.00;;;9.10;99.90;;;;;;5002756;28;20681;-89
2021/04/01 13:49:19;;;;;;;0.40;0.40;;;9.10;99.90;;;;;;5003478;28;20196;-87
2021/04/01 13:51:46;;;;;;;2.73;0.53;;;9.20;99.90;;;;;;4987118;28;20195;-88
2021/04/01 13:54:31;;;;;;;1.00;1.00;;;9.40;99.90;;;;;;4962382;28;20523;-90
2021/04/01 13:57:15;;;;;;;0.40;0.30;;;9.40;99.90;;;;;;4958089;28;20223;-88
2021/04/01 14:00:04;;;;;;;0.63;0.63;;;9.30;99.90;;;;;;4993999;28;20253;-90
2021/04/01 14:10:51;;;;;;;0.47;0.47;;;9.40;99.90;;;;;;5002774;28;20616;-89
2021/04/01 14:13:22;;;;;;;2.23;0.60;;;8.90;99.90;;;;;;4989927;28;20205;-89
2021/04/01 14:15:52;;;;;;;0.97;0.33;;;9.00;99.90;;;;;;4985319;28;20187;-88
2021/04/01 14:18:19;;;;;;;1.10;0.50;;;9.00;99.90;;;;;;4984064;28;20223;-87
2021/04/01 14:20:44;;;;;;;1.20;0.90;;;9.20;99.90;;;;;;4969048;28;20231;-88
2021/04/01 14:23:15;;;;;;;1.33;0.80;;;9.00;99.90;;;;;;4952003;28;20239;-90
2021/04/01 14:25:44;;;;;;;0.87;0.60;;;9.20;99.90;;;;;;4978152;28;20218;-90
2021/04/01 14:28:10;;;;;;;0.83;0.83;;;9.20;99.90;;;;;;4968809;28;20355;-90
2021/04/01 14:30:37;;;;;;;0.40;0.40;;;9.20;99.90;;;;;;4985492;28;20195;-90
2021/04/01 14:33:03;;;;;;;1.97;1.13;;;9.40;99.90;;;;;;4983711;28;20221;-90
2021/04/01 14:35:33;;;;;;;2.10;1.20;;;9.60;99.90;;;;;;4976283;28;20338;-90
2021/04/01 14:38:03;;;;;;;0.90;0.83;;;9.90;99.90;;;;;;4984921;28;20207;-89
2021/04/01 14:40:34;;;;;;;1.83;0.70;;;9.80;99.90;;;;;;4968224;28;20231;-88
2021/04/01 14:43:02;;;;;;;3.40;1.17;;;9.80;99.90;;;;;;4963952;28;20199;-91
2021/04/01 14:45:30;;;;;;;0.77;0.50;;;9.80;99.90;;;;;;4952364;28;20226;-89
2021/04/01 14:47:56;;;;;;;0.30;0.30;;;9.90;99.90;;;;;;4985731;28;20241;-88
2021/04/01 14:50:22;;;;;;;2.87;0.87;;;9.80;99.90;;;;;;4984956;28;20215;-88
2021/04/01 14:52:48;;;;;;;1.80;0.97;;;9.70;99.90;;;;;;4951197;28;20570;-89
2021/04/01 14:55:15;;;;;;;2.90;0.90;;;9.60;99.90;;;;;;4979688;28;20309;-89
2021/04/01 14:57:42;;;;;;;0.60;0.60;;;9.50;99.90;;;;;;4988135;28;20217;-89
2021/04/01 15:00:11;;;;;;;2.73;0.90;;;9.50;99.90;;;;;;4989515;28;20565;-89
2021/04/01 15:02:38;;;;;;;1.90;0.70;;;9.60;99.90;;;;;;4981234;28;20223;-88
2021/04/01 15:05:08;;;;;;;2.10;1.33;;;9.70;99.90;;;;;;4960966;28;20222;-89
2021/04/01 15:07:34;;;;;;;2.30;0.77;;;9.60;99.90;;;;;;4984541;28;20231;-89
2021/04/01 15:10:12;;;;;;;2.30;1.20;;;9.70;99.90;;;;;;4954219;28;20183;-89
2021/04/01 15:12:44;;;;;;;0.60;0.50;;;9.70;99.90;;;;;;5001839;28;20682;-92